sensor_id;sensor_type;location;lat;lon;timestamp;temperature;humidity
7143;DHT22;3613;48.902;9.204;2022-12-07T00:01:08;4.30;99.90
7143;DHT22;3613;48.902;9.204;2022-12-07T00:03:35;4.20;99.90
7143;DHT22;3613;48.902;9.204;2022-12-07T00:06:04;4.20;99.90
7143;DHT22;3613;48.902;9.204;2022-12-07T00:08:31;4.20;99.90
7143;DHT22;3613;48.902;9.204;2022-12-07T00:11:17;4.20;99.90
7143;DHT22;3613;48.902;9.204;2022-12-07T00:16:15;4.20;99.90
7143;DHT22;3613;48.902;9.204;2022-12-07T00:18:41;4.10;99.90
7143;DHT22;3613;48.902;9.204;2022-12-07T00:23:35;4.10;99.90
7143;DHT22;3613;48.902;9.204;2022-12-07T00:26:17;4.10;99.90
7143;DHT22;3613;48.902;9.204;2022-12-07T00:28:51;4.00;99.90
7143;DHT22;3613;48.902;9.204;2022-12-07T00:31:19;4.00;99.90
7143;DHT22;3613;48.902;9.204;2022-12-07T00:33:45;4.00;99.90
7143;DHT22;3613;48.902;9.204;2022-12-07T00:36:13;3.80;99.90
7143;DHT22;3613;48.902;9.204;2022-12-07T00:38:39;3.80;99.90
7143;DHT22;3613;48.902;9.204;2022-12-07T00:41:09;3.80;99.90
7143;DHT22;3613;48.902;9.204;2022-12-07T00:43:35;3.80;99.90
7143;DHT22;3613;48.902;9.204;2022-12-07T00:46:00;3.80;99.90
7143;DHT22;3613;48.902;9.204;2022-12-07T00:48:28;3.70;99.90
7143;DHT22;3613;48.902;9.204;2022-12-07T00:50:54;3.70;99.90
7143;DHT22;3613;48.902;9.204;2022-12-07T00:53:20;3.70;99.90
7143;DHT22;3613;48.902;9.204;2022-12-07T00:55:48;3.70;99.90
7143;DHT22;3613;48.902;9.204;2022-12-07T00:58:14;3.60;99.90
7143;DHT22;3613;48.902;9.204;2022-12-07T01:00:44;3.60;99.90
7143;DHT22;3613;48.902;9.204;2022-12-07T01:03:11;3.60;99.90
7143;DHT22;3613;48.902;9.204;2022-12-07T01:05:37;3.60;99.90
7143;DHT22;3613;48.902;9.204;2022-12-07T01:08:03;3.60;99.90
7143;DHT22;3613;48.902;9.204;2022-12-07T01:10:29;3.60;99.90
7143;DHT22;3613;48.902;9.204;2022-12-07T01:12:56;3.60;99.90
7143;DHT22;3613;48.902;9.204;2022-12-07T01:15:25;3.60;99.90
7143;DHT22;3613;48.902;9.204;2022-12-07T01:17:51;3.70;99.90
7143;DHT22;3613;48.902;9.204;2022-12-07T01:20:19;3.60;99.90
7143;DHT22;3613;48.902;9.204;2022-12-07T01:22:47;3.50;99.90
7143;DHT22;3613;48.902;9.204;2022-12-07T01:25:13;3.60;99.90
7143;DHT22;3613;48.902;9.204;2022-12-07T01:27:38;3.60;99.90
7143;DHT22;3613;48.902;9.204;2022-12-07T01:30:07;3.60;99.90
7143;DHT22;3613;48.902;9.204;2022-12-07T01:32:33;3.60;99.90
7143;DHT22;3613;48.902;9.204;2022-12-07T01:34:59;3.60;99.90
7143;DHT22;3613;48.902;9.204;2022-12-07T01:37:25;3.50;99.90
7143;DHT22;3613;48.902;9.204;2022-12-07T01:39:51;3.50;99.90
7143;DHT22;3613;48.902;9.204;2022-12-07T01:42:17;3.50;99.90
7143;DHT22;3613;48.902;9.204;2022-12-07T01:46:03;3.50;99.90
7143;DHT22;3613;48.902;9.204;2022-12-07T01:47:57;3.50;99.90
7143;DHT22;3613;48.902;9.204;2022-12-07T01:50:26;3.50;99.90
7143;DHT22;3613;48.902;9.204;2022-12-07T01:52:54;3.50;99.90
7143;DHT22;3613;48.902;9.204;2022-12-07T01:55:20;3.50;99.90
7143;DHT22;3613;48.902;9.204;2022-12-07T01:57:49;4.90;99.90
7143;DHT22;3613;48.902;9.204;2022-12-07T02:00:17;4.00;99.90
7143;DHT22;3613;48.902;9.204;2022-12-07T02:02:53;3.60;99.90
7143;DHT22;3613;48.902;9.204;2022-12-07T02:05:19;3.50;99.90
7143;DHT22;3613;48.902;9.204;2022-12-07T02:07:47;3.50;99.90
7143;DHT22;3613;48.902;9.204;2022-12-07T02:10:14;3.50;99.90
7143;DHT22;3613;48.902;9.204;2022-12-07T02:12:40;3.50;99.90
7143;DHT22;3613;48.902;9.204;2022-12-07T02:15:06;3.40;99.90
7143;DHT22;3613;48.902;9.204;2022-12-07T02:20:36;3.50;99.90
7143;DHT22;3613;48.902;9.204;2022-12-07T02:26:23;3.40;99.90
7143;DHT22;3613;48.902;9.204;2022-12-07T02:29:10;3.40;99.90
7143;DHT22;3613;48.902;9.204;2022-12-07T02:31:38;3.60;99.90
7143;DHT22;3613;48.902;9.204;2022-12-07T02:34:26;3.50;99.90
7143;DHT22;3613;48.902;9.204;2022-12-07T02:37:00;3.50;99.90
7143;DHT22;3613;48.902;9.204;2022-12-07T02:39:48;3.50;99.90
7143;DHT22;3613;48.902;9.204;2022-12-07T02:42:23;3.40;99.90
7143;DHT22;3613;48.902;9.204;2022-12-07T02:44:50;3.40;99.90
7143;DHT22;3613;48.902;9.204;2022-12-07T02:47:18;3.40;99.90
7143;DHT22;3613;48.902;9.204;2022-12-07T02:49:46;3.50;99.90
7143;DHT22;3613;48.902;9.204;2022-12-07T02:52:14;3.40;99.90
7143;DHT22;3613;48.902;9.204;2022-12-07T02:54:39;3.40;99.90
7143;DHT22;3613;48.902;9.204;2022-12-07T02:57:14;3.40;99.90
7143;DHT22;3613;48.902;9.204;2022-12-07T03:03:15;1.90;99.90
7143;DHT22;3613;48.902;9.204;2022-12-07T03:08:47;3.30;99.90
7143;DHT22;3613;48.902;9.204;2022-12-07T03:11:46;3.30;99.90
7143;DHT22;3613;48.902;9.204;2022-12-07T03:14:19;3.20;99.90
7143;DHT22;3613;48.902;9.204;2022-12-07T03:16:55;3.30;99.90
7143;DHT22;3613;48.902;9.204;2022-12-07T03:19:24;3.20;99.90
7143;DHT22;3613;48.902;9.204;2022-12-07T03:22:00;3.20;99.90
7143;DHT22;3613;48.902;9.204;2022-12-07T03:24:31;4.10;99.90
7143;DHT22;3613;48.902;9.204;2022-12-07T03:27:06;3.10;99.90
7143;DHT22;3613;48.902;9.204;2022-12-07T03:29:50;3.30;99.90
7143;DHT22;3613;48.902;9.204;2022-12-07T03:32:33;3.00;99.90
7143;DHT22;3613;48.902;9.204;2022-12-07T03:42:36;3.00;99.90
7143;DHT22;3613;48.902;9.204;2022-12-07T03:45:04;3.00;99.90
7143;DHT22;3613;48.902;9.204;2022-12-07T03:47:42;2.90;99.90
7143;DHT22;3613;48.902;9.204;2022-12-07T03:52:53;2.70;99.90
7143;DHT22;3613;48.902;9.204;2022-12-07T03:55:22;2.70;99.90
7143;DHT22;3613;48.902;9.204;2022-12-07T03:57:53;2.60;99.90
7143;DHT22;3613;48.902;9.204;2022-12-07T04:00:23;2.70;99.90
7143;DHT22;3613;48.902;9.204;2022-12-07T04:02:52;2.70;99.90
7143;DHT22;3613;48.902;9.204;2022-12-07T04:05:20;2.60;99.90
7143;DHT22;3613;48.902;9.204;2022-12-07T04:07:46;2.60;99.90
7143;DHT22;3613;48.902;9.204;2022-12-07T04:10:12;2.60;99.90
7143;DHT22;3613;48.902;9.204;2022-12-07T04:12:40;2.60;99.90
7143;DHT22;3613;48.902;9.204;2022-12-07T04:15:06;2.70;99.90
7143;DHT22;3613;48.902;9.204;2022-12-07T04:17:32;2.70;99.90
7143;DHT22;3613;48.902;9.204;2022-12-07T04:19:58;2.80;99.90
7143;DHT22;3613;48.902;9.204;2022-12-07T04:22:23;2.80;99.90
7143;DHT22;3613;48.902;9.204;2022-12-07T04:24:51;3.00;99.90
7143;DHT22;3613;48.902;9.204;2022-12-07T04:27:17;2.90;99.90
7143;DHT22;3613;48.902;9.204;2022-12-07T04:29:42;3.00;99.90
7143;DHT22;3613;48.902;9.204;2022-12-07T04:32:08;5.40;99.90
7143;DHT22;3613;48.902;9.204;2022-12-07T04:34:34;3.00;99.90
7143;DHT22;3613;48.902;9.204;2022-12-07T04:36:59;2.90;99.90
7143;DHT22;3613;48.902;9.204;2022-12-07T04:39:35;2.80;99.90
7143;DHT22;3613;48.902;9.204;2022-12-07T04:42:01;2.80;99.90
7143;DHT22;3613;48.902;9.204;2022-12-07T04:44:27;2.70;99.90
7143;DHT22;3613;48.902;9.204;2022-12-07T04:46:54;2.70;99.90
7143;DHT22;3613;48.902;9.204;2022-12-07T04:49:20;2.80;99.90
7143;DHT22;3613;48.902;9.204;2022-12-07T04:51:47;2.80;99.90
7143;DHT22;3613;48.902;9.204;2022-12-07T04:54:14;2.70;99.90
7143;DHT22;3613;48.902;9.204;2022-12-07T04:56:40;2.70;99.90
7143;DHT22;3613;48.902;9.204;2022-12-07T04:59:06;2.70;99.90
7143;DHT22;3613;48.902;9.204;2022-12-07T05:01:32;2.60;99.90
7143;DHT22;3613;48.902;9.204;2022-12-07T05:04:00;2.50;99.90
7143;DHT22;3613;48.902;9.204;2022-12-07T05:06:26;2.50;99.90
7143;DHT22;3613;48.902;9.204;2022-12-07T05:08:51;2.50;99.90
7143;DHT22;3613;48.902;9.204;2022-12-07T05:11:17;2.40;99.90
7143;DHT22;3613;48.902;9.204;2022-12-07T05:14:17;2.40;99.90
7143;DHT22;3613;48.902;9.204;2022-12-07T05:16:46;2.40;99.90
7143;DHT22;3613;48.902;9.204;2022-12-07T05:19:12;2.30;99.90
7143;DHT22;3613;48.902;9.204;2022-12-07T05:21:38;2.30;99.90
7143;DHT22;3613;48.902;9.204;2022-12-07T05:24:07;2.20;99.90
7143;DHT22;3613;48.902;9.204;2022-12-07T05:26:35;2.10;99.90
7143;DHT22;3613;48.902;9.204;2022-12-07T05:29:02;2.00;99.90
7143;DHT22;3613;48.902;9.204;2022-12-07T05:31:27;2.00;99.90
7143;DHT22;3613;48.902;9.204;2022-12-07T05:33:56;2.00;99.90
7143;DHT22;3613;48.902;9.204;2022-12-07T05:36:21;2.00;99.90
7143;DHT22;3613;48.902;9.204;2022-12-07T05:38:47;2.10;99.90
7143;DHT22;3613;48.902;9.204;2022-12-07T05:41:16;2.10;99.90
7143;DHT22;3613;48.902;9.204;2022-12-07T05:44:04;2.10;99.90
7143;DHT22;3613;48.902;9.204;2022-12-07T05:46:30;2.20;99.90
7143;DHT22;3613;48.902;9.204;2022-12-07T05:48:55;2.20;99.90
7143;DHT22;3613;48.902;9.204;2022-12-07T05:51:23;2.20;99.90
7143;DHT22;3613;48.902;9.204;2022-12-07T05:53:52;2.30;99.90
7143;DHT22;3613;48.902;9.204;2022-12-07T05:56:18;2.30;99.90
7143;DHT22;3613;48.902;9.204;2022-12-07T05:58:43;2.30;99.90
7143;DHT22;3613;48.902;9.204;2022-12-07T06:01:28;2.40;99.90
7143;DHT22;3613;48.902;9.204;2022-12-07T06:03:53;2.60;99.90
7143;DHT22;3613;48.902;9.204;2022-12-07T06:06:19;2.50;99.90
7143;DHT22;3613;48.902;9.204;2022-12-07T06:08:44;2.50;99.90
7143;DHT22;3613;48.902;9.204;2022-12-07T06:11:10;2.50;99.90
7143;DHT22;3613;48.902;9.204;2022-12-07T06:13:54;2.50;99.90
7143;DHT22;3613;48.902;9.204;2022-12-07T06:16:20;2.50;99.90
7143;DHT22;3613;48.902;9.204;2022-12-07T06:18:45;2.60;99.90
7143;DHT22;3613;48.902;9.204;2022-12-07T06:21:11;2.60;99.90
7143;DHT22;3613;48.902;9.204;2022-12-07T06:23:37;2.60;99.90
7143;DHT22;3613;48.902;9.204;2022-12-07T06:26:03;2.70;99.90
7143;DHT22;3613;48.902;9.204;2022-12-07T06:28:31;2.70;99.90
7143;DHT22;3613;48.902;9.204;2022-12-07T06:31:00;2.70;99.90
7143;DHT22;3613;48.902;9.204;2022-12-07T06:33:27;2.70;99.90
7143;DHT22;3613;48.902;9.204;2022-12-07T06:35:55;2.80;99.90
7143;DHT22;3613;48.902;9.204;2022-12-07T06:38:23;2.80;99.90
7143;DHT22;3613;48.902;9.204;2022-12-07T06:40:50;2.80;99.90
7143;DHT22;3613;48.902;9.204;2022-12-07T06:43:15;2.80;99.90
7143;DHT22;3613;48.902;9.204;2022-12-07T06:45:41;2.80;99.90
7143;DHT22;3613;48.902;9.204;2022-12-07T06:48:09;2.90;99.90
7143;DHT22;3613;48.902;9.204;2022-12-07T06:50:35;2.70;99.90
7143;DHT22;3613;48.902;9.204;2022-12-07T06:53:01;2.70;99.90
7143;DHT22;3613;48.902;9.204;2022-12-07T06:55:29;2.70;99.90
7143;DHT22;3613;48.902;9.204;2022-12-07T06:57:57;2.70;99.90
7143;DHT22;3613;48.902;9.204;2022-12-07T07:00:23;2.70;99.90
7143;DHT22;3613;48.902;9.204;2022-12-07T07:02:51;2.70;99.90
7143;DHT22;3613;48.902;9.204;2022-12-07T07:05:19;2.70;99.90
7143;DHT22;3613;48.902;9.204;2022-12-07T07:07:48;2.70;99.90
7143;DHT22;3613;48.902;9.204;2022-12-07T07:10:13;2.80;99.90
7143;DHT22;3613;48.902;9.204;2022-12-07T07:12:42;2.80;99.90
7143;DHT22;3613;48.902;9.204;2022-12-07T07:15:07;2.80;99.90
7143;DHT22;3613;48.902;9.204;2022-12-07T07:17:37;2.80;99.90
7143;DHT22;3613;48.902;9.204;2022-12-07T07:20:07;2.90;99.90
7143;DHT22;3613;48.902;9.204;2022-12-07T07:22:33;2.90;99.90
7143;DHT22;3613;48.902;9.204;2022-12-07T07:24:58;2.90;99.90
7143;DHT22;3613;48.902;9.204;2022-12-07T07:27:24;3.00;99.90
7143;DHT22;3613;48.902;9.204;2022-12-07T07:29:49;5.70;99.90
7143;DHT22;3613;48.902;9.204;2022-12-07T07:32:15;3.10;99.90
7143;DHT22;3613;48.902;9.204;2022-12-07T07:34:43;3.10;99.90
7143;DHT22;3613;48.902;9.204;2022-12-07T07:37:08;3.20;99.90
7143;DHT22;3613;48.902;9.204;2022-12-07T07:39:36;3.20;99.90
7143;DHT22;3613;48.902;9.204;2022-12-07T07:42:01;3.20;99.90
7143;DHT22;3613;48.902;9.204;2022-12-07T07:44:27;3.30;99.90
7143;DHT22;3613;48.902;9.204;2022-12-07T07:46:53;3.40;99.90
7143;DHT22;3613;48.902;9.204;2022-12-07T07:49:18;3.40;99.90
7143;DHT22;3613;48.902;9.204;2022-12-07T07:51:44;3.50;99.90
7143;DHT22;3613;48.902;9.204;2022-12-07T07:54:12;3.60;99.90
7143;DHT22;3613;48.902;9.204;2022-12-07T07:56:40;3.60;99.90
7143;DHT22;3613;48.902;9.204;2022-12-07T07:59:05;3.60;99.90
7143;DHT22;3613;48.902;9.204;2022-12-07T08:01:31;3.70;99.90
7143;DHT22;3613;48.902;9.204;2022-12-07T08:03:59;3.80;99.90
7143;DHT22;3613;48.902;9.204;2022-12-07T08:06:27;5.00;99.90
7143;DHT22;3613;48.902;9.204;2022-12-07T08:08:55;4.00;99.90
7143;DHT22;3613;48.902;9.204;2022-12-07T08:11:23;4.10;99.90
7143;DHT22;3613;48.902;9.204;2022-12-07T08:13:52;4.20;99.90
7143;DHT22;3613;48.902;9.204;2022-12-07T08:16:17;4.30;99.90
7143;DHT22;3613;48.902;9.204;2022-12-07T08:18:43;4.40;99.90
7143;DHT22;3613;48.902;9.204;2022-12-07T08:21:13;4.50;99.90
7143;DHT22;3613;48.902;9.204;2022-12-07T08:23:44;4.60;99.90
7143;DHT22;3613;48.902;9.204;2022-12-07T08:26:12;4.70;99.90
7143;DHT22;3613;48.902;9.204;2022-12-07T08:28:38;4.80;99.90
7143;DHT22;3613;48.902;9.204;2022-12-07T08:31:07;4.80;99.90
7143;DHT22;3613;48.902;9.204;2022-12-07T08:33:34;4.90;99.90
7143;DHT22;3613;48.902;9.204;2022-12-07T08:36:07;4.90;99.90
7143;DHT22;3613;48.902;9.204;2022-12-07T08:38:36;5.00;99.90
7143;DHT22;3613;48.902;9.204;2022-12-07T08:41:05;5.00;99.90
7143;DHT22;3613;48.902;9.204;2022-12-07T08:43:31;5.20;99.90
7143;DHT22;3613;48.902;9.204;2022-12-07T08:46:09;5.20;99.90
7143;DHT22;3613;48.902;9.204;2022-12-07T08:48:41;5.30;99.90
7143;DHT22;3613;48.902;9.204;2022-12-07T08:51:07;5.40;99.90
7143;DHT22;3613;48.902;9.204;2022-12-07T08:53:34;5.50;99.90
7143;DHT22;3613;48.902;9.204;2022-12-07T08:56:00;5.60;99.90
7143;DHT22;3613;48.902;9.204;2022-12-07T08:58:26;5.70;99.90
7143;DHT22;3613;48.902;9.204;2022-12-07T09:00:54;6.00;99.90
7143;DHT22;3613;48.902;9.204;2022-12-07T09:03:22;6.00;99.90
7143;DHT22;3613;48.902;9.204;2022-12-07T09:05:48;6.10;99.90
7143;DHT22;3613;48.902;9.204;2022-12-07T09:08:14;6.20;99.90
7143;DHT22;3613;48.902;9.204;2022-12-07T09:10:39;6.20;99.90
7143;DHT22;3613;48.902;9.204;2022-12-07T09:13:05;6.30;99.90
7143;DHT22;3613;48.902;9.204;2022-12-07T09:15:31;6.30;99.90
7143;DHT22;3613;48.902;9.204;2022-12-07T09:17:57;6.40;99.90
7143;DHT22;3613;48.902;9.204;2022-12-07T09:20:23;6.40;99.90
7143;DHT22;3613;48.902;9.204;2022-12-07T09:22:48;6.50;99.90
7143;DHT22;3613;48.902;9.204;2022-12-07T09:25:19;6.50;99.90
7143;DHT22;3613;48.902;9.204;2022-12-07T09:27:47;6.30;99.90
7143;DHT22;3613;48.902;9.204;2022-12-07T09:30:15;6.20;99.90
7143;DHT22;3613;48.902;9.204;2022-12-07T09:32:41;6.20;99.90
7143;DHT22;3613;48.902;9.204;2022-12-07T09:35:06;6.80;99.90
7143;DHT22;3613;48.902;9.204;2022-12-07T09:37:32;6.30;99.90
7143;DHT22;3613;48.902;9.204;2022-12-07T09:40:00;6.40;99.90
7143;DHT22;3613;48.902;9.204;2022-12-07T09:42:37;6.40;99.90
7143;DHT22;3613;48.902;9.204;2022-12-07T09:45:06;6.40;99.90
7143;DHT22;3613;48.902;9.204;2022-12-07T09:47:37;6.40;99.90
7143;DHT22;3613;48.902;9.204;2022-12-07T09:50:10;6.40;99.90
7143;DHT22;3613;48.902;9.204;2022-12-07T09:52:39;6.30;99.90
7143;DHT22;3613;48.902;9.204;2022-12-07T09:55:13;6.10;99.90
7143;DHT22;3613;48.902;9.204;2022-12-07T09:57:42;6.10;99.90
7143;DHT22;3613;48.902;9.204;2022-12-07T10:00:19;6.00;99.90
7143;DHT22;3613;48.902;9.204;2022-12-07T10:02:57;6.00;99.90
7143;DHT22;3613;48.902;9.204;2022-12-07T10:05:50;6.10;99.90
7143;DHT22;3613;48.902;9.204;2022-12-07T10:08:14;6.10;99.90
7143;DHT22;3613;48.902;9.204;2022-12-07T10:10:44;6.20;99.90
7143;DHT22;3613;48.902;9.204;2022-12-07T10:13:17;6.20;99.90
7143;DHT22;3613;48.902;9.204;2022-12-07T10:15:57;6.30;99.90
7143;DHT22;3613;48.902;9.204;2022-12-07T10:18:37;6.40;99.90
7143;DHT22;3613;48.902;9.204;2022-12-07T10:23:33;6.50;99.90
7143;DHT22;3613;48.902;9.204;2022-12-07T10:26:20;6.60;99.90
7143;DHT22;3613;48.902;9.204;2022-12-07T10:28:47;6.60;99.90
7143;DHT22;3613;48.902;9.204;2022-12-07T10:31:22;6.70;99.90
7143;DHT22;3613;48.902;9.204;2022-12-07T10:33:59;6.70;99.90
7143;DHT22;3613;48.902;9.204;2022-12-07T10:36:35;6.80;99.90
7143;DHT22;3613;48.902;9.204;2022-12-07T10:39:03;6.70;99.90
7143;DHT22;3613;48.902;9.204;2022-12-07T10:41:29;6.50;99.90
7143;DHT22;3613;48.902;9.204;2022-12-07T10:43:57;6.60;99.90
7143;DHT22;3613;48.902;9.204;2022-12-07T10:46:33;6.60;99.90
7143;DHT22;3613;48.902;9.204;2022-12-07T10:51:43;6.50;99.90
7143;DHT22;3613;48.902;9.204;2022-12-07T10:55:02;6.50;99.90
7143;DHT22;3613;48.902;9.204;2022-12-07T10:57:14;6.50;99.90
7143;DHT22;3613;48.902;9.204;2022-12-07T10:59:52;6.50;99.90
7143;DHT22;3613;48.902;9.204;2022-12-07T11:02:48;6.70;99.90
7143;DHT22;3613;48.902;9.204;2022-12-07T11:08:09;6.50;99.90
7143;DHT22;3613;48.902;9.204;2022-12-07T11:11:20;6.40;99.90
7143;DHT22;3613;48.902;9.204;2022-12-07T11:14:10;6.10;99.90
7143;DHT22;3613;48.902;9.204;2022-12-07T11:22:44;5.70;99.90
7143;DHT22;3613;48.902;9.204;2022-12-07T11:25:27;5.50;99.90
7143;DHT22;3613;48.902;9.204;2022-12-07T11:31:08;5.20;99.90
7143;DHT22;3613;48.902;9.204;2022-12-07T11:41:50;5.80;99.90
7143;DHT22;3613;48.902;9.204;2022-12-07T11:44:30;5.90;99.90
7143;DHT22;3613;48.902;9.204;2022-12-07T11:47:16;6.10;99.90
7143;DHT22;3613;48.902;9.204;2022-12-07T11:55:02;6.40;99.90
7143;DHT22;3613;48.902;9.204;2022-12-07T11:57:37;6.40;99.90
7143;DHT22;3613;48.902;9.204;2022-12-07T12:00:08;6.40;99.90
7143;DHT22;3613;48.902;9.204;2022-12-07T12:05:21;6.50;99.90
7143;DHT22;3613;48.902;9.204;2022-12-07T12:21:49;6.60;99.90
7143;DHT22;3613;48.902;9.204;2022-12-07T12:24:25;7.20;99.90
7143;DHT22;3613;48.902;9.204;2022-12-07T12:27:28;6.70;99.90
7143;DHT22;3613;48.902;9.204;2022-12-07T12:30:00;6.70;99.90
7143;DHT22;3613;48.902;9.204;2022-12-07T12:35:21;6.50;99.90
7143;DHT22;3613;48.902;9.204;2022-12-07T12:37:49;6.40;99.90
7143;DHT22;3613;48.902;9.204;2022-12-07T12:42:57;6.30;99.90
7143;DHT22;3613;48.902;9.204;2022-12-07T12:45:27;6.20;99.90
7143;DHT22;3613;48.902;9.204;2022-12-07T12:50:21;6.20;99.90
7143;DHT22;3613;48.902;9.204;2022-12-07T12:53:02;6.10;99.90
7143;DHT22;3613;48.902;9.204;2022-12-07T12:58:40;6.20;99.90
7143;DHT22;3613;48.902;9.204;2022-12-07T13:01:37;6.30;99.90
7143;DHT22;3613;48.902;9.204;2022-12-07T13:04:37;6.20;99.90
7143;DHT22;3613;48.902;9.204;2022-12-07T13:07:03;6.20;99.90
7143;DHT22;3613;48.902;9.204;2022-12-07T13:09:33;6.20;99.90
7143;DHT22;3613;48.902;9.204;2022-12-07T13:12:12;6.10;99.90
7143;DHT22;3613;48.902;9.204;2022-12-07T13:14:51;6.00;99.90
7143;DHT22;3613;48.902;9.204;2022-12-07T13:20:02;6.10;99.90
7143;DHT22;3613;48.902;9.204;2022-12-07T13:27:25;6.10;99.90
7143;DHT22;3613;48.902;9.204;2022-12-07T13:29:56;6.10;99.90
7143;DHT22;3613;48.902;9.204;2022-12-07T13:32:28;6.10;99.90
7143;DHT22;3613;48.902;9.204;2022-12-07T13:34:55;6.20;99.90
7143;DHT22;3613;48.902;9.204;2022-12-07T13:37:31;6.20;99.90
7143;DHT22;3613;48.902;9.204;2022-12-07T13:40:00;6.40;99.90
7143;DHT22;3613;48.902;9.204;2022-12-07T13:42:28;6.30;99.90
7143;DHT22;3613;48.902;9.204;2022-12-07T13:44:55;6.20;99.90
7143;DHT22;3613;48.902;9.204;2022-12-07T13:47:25;6.20;99.90
7143;DHT22;3613;48.902;9.204;2022-12-07T13:49:57;6.20;99.90
7143;DHT22;3613;48.902;9.204;2022-12-07T13:52:25;6.20;99.90
7143;DHT22;3613;48.902;9.204;2022-12-07T13:55:13;6.20;99.90
7143;DHT22;3613;48.902;9.204;2022-12-07T13:57:40;6.20;99.90
7143;DHT22;3613;48.902;9.204;2022-12-07T14:00:24;6.20;99.90
7143;DHT22;3613;48.902;9.204;2022-12-07T14:02:57;6.10;99.90
7143;DHT22;3613;48.902;9.204;2022-12-07T14:05:29;6.00;99.90
7143;DHT22;3613;48.902;9.204;2022-12-07T14:08:43;5.90;99.90
7143;DHT22;3613;48.902;9.204;2022-12-07T14:16:31;5.70;99.90
7143;DHT22;3613;48.902;9.204;2022-12-07T14:19:00;5.60;99.90
7143;DHT22;3613;48.902;9.204;2022-12-07T14:21:28;5.60;99.90
7143;DHT22;3613;48.902;9.204;2022-12-07T14:24:17;5.60;99.90
7143;DHT22;3613;48.902;9.204;2022-12-07T14:26:48;5.50;99.90
7143;DHT22;3613;48.902;9.204;2022-12-07T14:31:55;8.80;99.90
7143;DHT22;3613;48.902;9.204;2022-12-07T14:34:21;5.40;99.90
7143;DHT22;3613;48.902;9.204;2022-12-07T14:36:47;5.40;99.90
7143;DHT22;3613;48.902;9.204;2022-12-07T14:39:13;5.30;99.90
7143;DHT22;3613;48.902;9.204;2022-12-07T14:41:41;5.20;99.90
7143;DHT22;3613;48.902;9.204;2022-12-07T14:44:18;5.20;99.90
7143;DHT22;3613;48.902;9.204;2022-12-07T14:46:44;5.10;99.90
7143;DHT22;3613;48.902;9.204;2022-12-07T14:49:10;5.10;99.90
7143;DHT22;3613;48.902;9.204;2022-12-07T14:51:37;5.00;99.90
7143;DHT22;3613;48.902;9.204;2022-12-07T14:54:05;4.90;99.90
7143;DHT22;3613;48.902;9.204;2022-12-07T14:56:31;4.80;99.90
7143;DHT22;3613;48.902;9.204;2022-12-07T15:03:54;4.70;99.90
7143;DHT22;3613;48.902;9.204;2022-12-07T15:06:19;4.60;99.90
7143;DHT22;3613;48.902;9.204;2022-12-07T15:08:45;4.60;99.90
7143;DHT22;3613;48.902;9.204;2022-12-07T15:11:17;4.50;99.90
7143;DHT22;3613;48.902;9.204;2022-12-07T15:13:45;4.50;99.90
7143;DHT22;3613;48.902;9.204;2022-12-07T15:16:30;4.50;99.90
7143;DHT22;3613;48.902;9.204;2022-12-07T15:21:26;4.60;99.90
7143;DHT22;3613;48.902;9.204;2022-12-07T15:23:53;4.50;99.90
7143;DHT22;3613;48.902;9.204;2022-12-07T15:26:19;4.50;99.90
7143;DHT22;3613;48.902;9.204;2022-12-07T15:28:45;4.50;99.90
7143;DHT22;3613;48.902;9.204;2022-12-07T15:31:14;4.50;99.90
7143;DHT22;3613;48.902;9.204;2022-12-07T15:36:07;4.50;99.90
7143;DHT22;3613;48.902;9.204;2022-12-07T15:38:33;4.40;99.90
7143;DHT22;3613;48.902;9.204;2022-12-07T15:41:00;4.50;99.90
7143;DHT22;3613;48.902;9.204;2022-12-07T15:43:26;4.50;99.90
7143;DHT22;3613;48.902;9.204;2022-12-07T15:46:10;4.50;99.90
7143;DHT22;3613;48.902;9.204;2022-12-07T15:51:04;4.40;99.90
7143;DHT22;3613;48.902;9.204;2022-12-07T15:53:32;4.40;99.90
7143;DHT22;3613;48.902;9.204;2022-12-07T16:00:54;4.30;99.90
7143;DHT22;3613;48.902;9.204;2022-12-07T16:03:19;4.30;99.90
7143;DHT22;3613;48.902;9.204;2022-12-07T16:05:49;4.30;99.90
7143;DHT22;3613;48.902;9.204;2022-12-07T16:08:15;4.30;99.90
7143;DHT22;3613;48.902;9.204;2022-12-07T16:10:41;4.30;99.90
7143;DHT22;3613;48.902;9.204;2022-12-07T16:13:09;4.20;99.90
7143;DHT22;3613;48.902;9.204;2022-12-07T16:15:41;4.20;99.90
7143;DHT22;3613;48.902;9.204;2022-12-07T16:18:07;4.10;99.90
7143;DHT22;3613;48.902;9.204;2022-12-07T16:20:33;4.10;99.90
7143;DHT22;3613;48.902;9.204;2022-12-07T16:22:59;4.10;99.90
7143;DHT22;3613;48.902;9.204;2022-12-07T16:25:25;4.00;99.90
7143;DHT22;3613;48.902;9.204;2022-12-07T16:27:52;4.00;99.90
7143;DHT22;3613;48.902;9.204;2022-12-07T16:32:44;3.90;99.90
7143;DHT22;3613;48.902;9.204;2022-12-07T16:35:10;3.90;99.90
7143;DHT22;3613;48.902;9.204;2022-12-07T16:40:02;3.70;99.90
7143;DHT22;3613;48.902;9.204;2022-12-07T16:42:32;3.50;99.90
7143;DHT22;3613;48.902;9.204;2022-12-07T16:45:01;3.40;99.90
7143;DHT22;3613;48.902;9.204;2022-12-07T16:49:53;3.20;99.90
7143;DHT22;3613;48.902;9.204;2022-12-07T16:52:19;3.10;99.90
7143;DHT22;3613;48.902;9.204;2022-12-07T17:02:07;2.90;99.90
7143;DHT22;3613;48.902;9.204;2022-12-07T17:04:36;2.90;99.90
7143;DHT22;3613;48.902;9.204;2022-12-07T17:07:07;2.80;99.90
7143;DHT22;3613;48.902;9.204;2022-12-07T17:12:04;2.90;99.90
7143;DHT22;3613;48.902;9.204;2022-12-07T17:14:32;3.00;99.90
7143;DHT22;3613;48.902;9.204;2022-12-07T17:17:16;3.10;99.90
7143;DHT22;3613;48.902;9.204;2022-12-07T17:22:08;3.20;99.90
7143;DHT22;3613;48.902;9.204;2022-12-07T17:24:36;3.20;99.90
7143;DHT22;3613;48.902;9.204;2022-12-07T17:27:02;3.20;99.90
7143;DHT22;3613;48.902;9.204;2022-12-07T17:29:28;3.30;99.90
7143;DHT22;3613;48.902;9.204;2022-12-07T17:36:48;3.50;99.90
7143;DHT22;3613;48.902;9.204;2022-12-07T17:39:17;3.40;99.90
7143;DHT22;3613;48.902;9.204;2022-12-07T17:44:28;3.50;99.90
7143;DHT22;3613;48.902;9.204;2022-12-07T17:46:54;3.60;99.90
7143;DHT22;3613;48.902;9.204;2022-12-07T17:49:22;3.60;99.90
7143;DHT22;3613;48.902;9.204;2022-12-07T17:51:49;3.60;99.90
7143;DHT22;3613;48.902;9.204;2022-12-07T17:56:59;3.70;99.90
7143;DHT22;3613;48.902;9.204;2022-12-07T18:01:53;3.70;99.90
7143;DHT22;3613;48.902;9.204;2022-12-07T18:04:19;3.70;99.90
7143;DHT22;3613;48.902;9.204;2022-12-07T18:06:45;3.70;99.90
7143;DHT22;3613;48.902;9.204;2022-12-07T18:14:04;3.80;99.90
7143;DHT22;3613;48.902;9.204;2022-12-07T18:16:31;3.80;99.90
7143;DHT22;3613;48.902;9.204;2022-12-07T18:19:00;3.80;99.90
7143;DHT22;3613;48.902;9.204;2022-12-07T18:21:28;3.70;99.90
7143;DHT22;3613;48.902;9.204;2022-12-07T18:23:57;3.70;99.90
7143;DHT22;3613;48.902;9.204;2022-12-07T18:26:24;3.70;99.90
7143;DHT22;3613;48.902;9.204;2022-12-07T18:28:51;3.70;99.90
7143;DHT22;3613;48.902;9.204;2022-12-07T18:31:17;3.80;99.90
7143;DHT22;3613;48.902;9.204;2022-12-07T18:33:44;3.80;99.90
7143;DHT22;3613;48.902;9.204;2022-12-07T18:36:11;3.80;99.90
7143;DHT22;3613;48.902;9.204;2022-12-07T18:38:37;3.80;99.90
7143;DHT22;3613;48.902;9.204;2022-12-07T18:41:06;3.80;99.90
7143;DHT22;3613;48.902;9.204;2022-12-07T18:43:32;3.80;99.90
7143;DHT22;3613;48.902;9.204;2022-12-07T18:45:58;3.80;99.90
7143;DHT22;3613;48.902;9.204;2022-12-07T18:51:03;3.80;99.90
7143;DHT22;3613;48.902;9.204;2022-12-07T18:53:29;3.80;99.90
7143;DHT22;3613;48.902;9.204;2022-12-07T18:56:06;3.70;99.90
7143;DHT22;3613;48.902;9.204;2022-12-07T18:58:33;3.70;99.90
7143;DHT22;3613;48.902;9.204;2022-12-07T19:01:02;3.70;99.90
7143;DHT22;3613;48.902;9.204;2022-12-07T19:03:28;3.80;99.90
7143;DHT22;3613;48.902;9.204;2022-12-07T19:05:55;3.70;99.90
7143;DHT22;3613;48.902;9.204;2022-12-07T19:08:25;3.70;99.90
7143;DHT22;3613;48.902;9.204;2022-12-07T19:10:52;4.20;99.90
7143;DHT22;3613;48.902;9.204;2022-12-07T19:13:18;3.80;99.90